createdAt,value
2023-04-07T00:00:00.123Z,51.4
2023-04-07T00:05:00.329Z,52.1
2023-04-07T00:10:00.160Z,51.9
2023-04-07T00:15:00.142Z,52.5
2023-04-07T00:20:00.119Z,53.1
2023-04-07T00:25:00.137Z,53.9
2023-04-07T00:30:00.127Z,54.9
2023-04-07T00:35:00.130Z,55.8
2023-04-07T00:40:00.145Z,56.9
2023-04-07T00:45:00.138Z,57.7
2023-04-07T00:50:00.136Z,58.5
2023-04-07T00:55:00.144Z,58.9
2023-04-07T01:00:00.194Z,61
2023-04-07T01:05:00.181Z,61.1
2023-04-07T01:10:00.115Z,60.6
2023-04-07T01:15:00.120Z,61.8
2023-04-07T01:20:00.139Z,61.9
2023-04-07T01:25:00.080Z,62.3
2023-04-07T01:30:00.150Z,62.6
2023-04-07T01:35:00.153Z,62.9
2023-04-07T01:40:00.135Z,63.1
2023-04-07T01:45:00.170Z,63.1
2023-04-07T01:50:00.138Z,63.6
2023-04-07T01:55:00.137Z,63.9
2023-04-07T02:00:00.156Z,64.3
2023-04-07T02:05:00.162Z,64.5
2023-04-07T02:10:00.101Z,64.3
2023-04-07T02:15:00.180Z,64.5
2023-04-07T02:20:00.151Z,64.4
2023-04-07T02:25:00.110Z,64.2
2023-04-07T02:30:00.133Z,64.2
2023-04-07T02:35:00.124Z,64.3
2023-04-07T02:40:00.115Z,64.6
2023-04-07T02:45:00.188Z,64.9
2023-04-07T02:50:00.117Z,65
2023-04-07T02:55:00.153Z,65.1
2023-04-07T03:00:00.104Z,65.2
2023-04-07T03:05:00.164Z,65.3
2023-04-07T03:10:00.128Z,65.4
2023-04-07T03:15:00.136Z,65.3
2023-04-07T03:20:00.110Z,65.1
2023-04-07T03:25:00.134Z,64.9
2023-04-07T03:30:00.138Z,64.6
2023-04-07T03:35:00.137Z,64.9
2023-04-07T03:40:00.131Z,65.2
2023-04-07T03:45:00.105Z,65.6
2023-04-07T03:50:00.101Z,65.8
2023-04-07T03:55:00.148Z,66.2
2023-04-07T04:00:00.114Z,66.5
2023-04-07T04:05:00.132Z,66.9
2023-04-07T04:10:00.167Z,66.7
2023-04-07T04:15:00.126Z,66.6
2023-04-07T04:20:00.208Z,66.8
2023-04-07T04:25:00.126Z,66.8
2023-04-07T04:30:00.145Z,66.6
2023-04-07T04:35:00.152Z,66.6
2023-04-07T04:40:00.163Z,66.5
2023-04-07T04:45:00.110Z,66.5
2023-04-07T04:50:00.133Z,66.8
2023-04-07T04:55:00.115Z,67.5
2023-04-07T05:00:00.155Z,68.1
2023-04-07T05:05:00.216Z,68.8
2023-04-07T05:10:00.133Z,69.6
2023-04-07T05:15:00.125Z,69.5
2023-04-07T05:20:00.116Z,66.6
2023-04-07T05:25:00.124Z,65.2
2023-04-07T05:30:00.160Z,64.3
2023-04-07T05:35:00.191Z,63.7
2023-04-07T05:40:00.111Z,63.3
2023-04-07T05:45:00.135Z,63
2023-04-07T05:50:00.090Z,63
2023-04-07T05:55:00.146Z,63.5
2023-04-07T06:00:00.127Z,64
2023-04-07T06:05:00.192Z,64.6
2023-04-07T06:10:00.139Z,65.1
2023-04-07T06:15:00.140Z,64.7
2023-04-07T06:20:00.110Z,64.3
2023-04-07T06:25:00.121Z,62.8
2023-04-07T06:30:00.135Z,60.4
2023-04-07T06:35:00.135Z,59.7
2023-04-07T06:40:00.136Z,57.2
2023-04-07T06:45:00.110Z,53.9
2023-04-07T06:50:00.140Z,50.5
2023-04-07T06:55:00.139Z,48.3
2023-04-07T07:00:00.165Z,46.1
2023-04-07T07:05:00.139Z,44.4
2023-04-07T07:10:00.149Z,41.8
2023-04-07T07:15:00.139Z,42
2023-04-07T07:20:00.129Z,41.3
2023-04-07T07:25:00.109Z,40.9
2023-04-07T07:30:00.123Z,40
2023-04-07T07:35:00.178Z,40.7
2023-04-07T07:40:00.167Z,40.9
2023-04-07T07:45:00.265Z,40.3
2023-04-07T07:50:00.107Z,40.9
2023-04-07T07:55:00.114Z,41
2023-04-07T08:00:00.170Z,37.2
2023-04-07T08:05:00.203Z,36
2023-04-07T08:10:00.094Z,33
2023-04-07T08:15:00.159Z,31.8
2023-04-07T08:20:00.118Z,31.9
2023-04-07T08:25:00.145Z,31.5
2023-04-07T08:30:00.163Z,31.3
2023-04-07T08:35:00.142Z,31.8
2023-04-07T08:40:00.125Z,32.1
2023-04-07T08:45:00.987Z,30.9
2023-04-07T08:50:00.103Z,31.2
2023-04-07T08:55:00.134Z,29.8
2023-04-07T09:00:00.143Z,29.1
2023-04-07T09:05:00.154Z,29.1
2023-04-07T09:10:00.111Z,28.3
2023-04-07T09:15:00.164Z,26.8
2023-04-07T09:20:00.132Z,28.4
2023-04-07T09:25:00.132Z,28.5
2023-04-07T09:30:00.127Z,26.8
2023-04-07T09:35:00.117Z,27.7
2023-04-07T09:40:00.107Z,28.5
2023-04-07T09:45:00.142Z,28.9
2023-04-07T09:50:00.133Z,27.7
2023-04-07T09:55:00.158Z,27.2
2023-04-07T10:00:00.154Z,28.4
2023-04-07T10:05:00.140Z,28.9
2023-04-07T10:10:00.100Z,29.1
2023-04-07T10:15:00.162Z,27.5
2023-04-07T10:20:00.131Z,29.3
2023-04-07T10:25:00.141Z,29.3
2023-04-07T10:30:00.228Z,29.1
2023-04-07T10:35:00.161Z,29.2
2023-04-07T10:40:00.191Z,29.1
2023-04-07T10:45:00.199Z,29.1
2023-04-07T10:50:00.140Z,29.3
2023-04-07T10:55:00.247Z,28.8
2023-04-07T11:00:00.162Z,28.1
2023-04-07T11:05:00.120Z,28
2023-04-07T11:10:00.106Z,27.5
2023-04-07T11:15:00.162Z,27.3
2023-04-07T11:20:00.134Z,27.2
2023-04-07T11:25:00.151Z,27.2
2023-04-07T11:30:00.128Z,27.8
2023-04-07T11:35:00.184Z,27.6
2023-04-07T11:40:00.122Z,27.5
2023-04-07T11:45:00.133Z,27.4
2023-04-07T11:50:00.156Z,27
2023-04-07T11:55:00.219Z,26.3
2023-04-07T12:00:00.167Z,26.7
2023-04-07T12:05:00.254Z,26.9
2023-04-07T12:10:00.139Z,26.5
2023-04-07T12:15:00.146Z,26.3
2023-04-07T12:20:00.129Z,26.9
2023-04-07T12:25:00.165Z,26.1
2023-04-07T12:30:00.215Z,28.1
2023-04-07T12:35:00.156Z,28.6
2023-04-07T12:40:00.136Z,28
2023-04-07T12:45:00.148Z,27.5
2023-04-07T12:50:00.166Z,26.8
2023-04-07T12:55:00.148Z,26.7
2023-04-07T13:00:00.186Z,27.9
2023-04-07T13:05:00.120Z,26.6
2023-04-07T13:10:00.130Z,26.6
2023-04-07T13:15:00.696Z,27
2023-04-07T13:20:00.161Z,27.5
2023-04-07T13:25:00.856Z,27.9
2023-04-07T13:30:00.204Z,28.4
2023-04-07T13:35:00.159Z,28.7
2023-04-07T13:40:00.144Z,28.9
2023-04-07T13:45:00.123Z,28.9
2023-04-07T13:50:00.137Z,28.9
2023-04-07T13:55:00.158Z,28.7
2023-04-07T14:00:00.165Z,28.7
2023-04-07T14:05:00.119Z,29
2023-04-07T14:10:00.179Z,29.3
2023-04-07T14:15:00.175Z,29.4
2023-04-07T14:20:00.104Z,29
2023-04-07T14:25:00.122Z,28.9
2023-04-07T14:30:00.179Z,28.9
2023-04-07T14:35:00.220Z,29
2023-04-07T14:40:02.788Z,29.2
2023-04-07T14:45:00.164Z,29.2
2023-04-07T14:50:00.213Z,29.9
2023-04-07T14:55:00.576Z,30.3
2023-04-07T15:00:00.171Z,29.5
2023-04-07T15:05:00.201Z,30.5
2023-04-07T15:10:00.138Z,30.5
2023-04-07T15:15:00.163Z,30.3
2023-04-07T15:20:00.106Z,30.1
2023-04-07T15:25:00.175Z,30.1
2023-04-07T15:30:00.205Z,29.9
2023-04-07T15:35:00.164Z,29.6
2023-04-07T15:40:00.176Z,29.4
2023-04-07T15:45:00.203Z,29.7
2023-04-07T15:50:00.153Z,30.1
2023-04-07T15:55:00.210Z,30
2023-04-07T16:00:00.196Z,30
2023-04-07T16:05:00.143Z,29.8
2023-04-07T16:15:00.199Z,30
2023-04-07T16:20:00.112Z,30
2023-04-07T16:25:00.125Z,30.1
2023-04-07T16:30:00.184Z,30.7
2023-04-07T16:35:00.167Z,32.1
2023-04-07T16:40:00.148Z,32.6
2023-04-07T16:45:00.149Z,32.8
2023-04-07T16:50:00.163Z,33
2023-04-07T16:55:00.195Z,32.9
2023-04-07T17:00:00.244Z,33.2
2023-04-07T17:05:00.161Z,33.4
2023-04-07T17:10:00.298Z,33.6
2023-04-07T17:15:00.142Z,34
2023-04-07T17:20:00.182Z,34.4
2023-04-07T17:25:00.154Z,34.8
2023-04-07T17:30:00.346Z,35.1
2023-04-07T17:35:00.152Z,34.9
2023-04-07T17:40:00.132Z,34.6
2023-04-07T17:45:00.209Z,34.9
2023-04-07T17:50:00.157Z,34.9
2023-04-07T17:55:00.138Z,34.8
2023-04-07T18:00:00.181Z,35
2023-04-07T18:05:00.361Z,35.6
2023-04-07T18:10:00.155Z,35.9
2023-04-07T18:15:00.172Z,36.4
2023-04-07T18:20:00.090Z,37.3
2023-04-07T18:25:00.160Z,37.8
2023-04-07T18:30:00.179Z,38.6
2023-04-07T18:35:00.189Z,39.4
2023-04-07T18:40:00.147Z,40.8
2023-04-07T18:45:00.138Z,42.6
2023-04-07T18:50:00.149Z,45.2
2023-04-07T18:55:00.619Z,49.8
2023-04-07T19:00:00.204Z,53.8
2023-04-07T19:05:00.179Z,57.8
2023-04-07T19:10:00.173Z,62.7
2023-04-07T19:15:00.213Z,65.2
2023-04-07T19:20:00.153Z,67.9
2023-04-07T19:25:00.144Z,69.5
2023-04-07T19:30:00.221Z,71.7
2023-04-07T19:35:00.205Z,74.3
2023-04-07T19:40:03.111Z,76.8
2023-04-07T19:45:00.129Z,78.8
2023-04-07T19:50:00.227Z,80
2023-04-07T19:55:00.154Z,81.1
2023-04-07T20:00:00.225Z,81.7
2023-04-07T20:05:00.175Z,81.9
2023-04-07T20:10:00.147Z,82.4
2023-04-07T20:15:00.148Z,83.4
2023-04-07T20:20:00.233Z,84.4
2023-04-07T20:25:00.223Z,85.6
2023-04-07T20:30:00.171Z,86.3
2023-04-07T20:35:00.144Z,86.9
2023-04-07T20:40:00.204Z,87.5
2023-04-07T20:45:00.188Z,87.3
2023-04-07T20:50:00.203Z,88.7
2023-04-07T20:55:00.196Z,89
2023-04-07T21:00:00.305Z,89.6
2023-04-07T21:05:00.220Z,89.5
2023-04-07T21:10:00.145Z,89.5
2023-04-07T21:15:00.151Z,89
2023-04-07T21:20:00.205Z,88.8
2023-04-07T21:25:00.157Z,89.1
2023-04-07T21:30:00.186Z,89.1
2023-04-07T21:35:00.218Z,89.2
2023-04-07T21:40:00.230Z,89.1
2023-04-07T21:45:00.176Z,89.1
2023-04-07T21:50:00.202Z,89.3
2023-04-07T21:55:00.142Z,89.6
2023-04-07T22:00:00.274Z,89.6
2023-04-07T22:05:00.207Z,90
2023-04-07T22:10:00.178Z,90.1
2023-04-07T22:15:00.169Z,90.2
2023-04-07T22:20:00.174Z,90.2
2023-04-07T22:25:00.159Z,90.5
2023-04-07T22:30:00.230Z,90.3
2023-04-07T22:35:00.215Z,90.5
2023-04-07T22:40:00.180Z,90.6
2023-04-07T22:45:00.155Z,90.7
2023-04-07T22:50:00.163Z,90.9
2023-04-07T22:55:00.187Z,91.1
2023-04-07T23:00:00.150Z,91.4
2023-04-07T23:05:00.198Z,91.5
2023-04-07T23:10:00.166Z,91.7
2023-04-07T23:15:00.178Z,92.3
2023-04-07T23:20:00.161Z,92.8
2023-04-07T23:25:00.168Z,93
2023-04-07T23:30:00.279Z,93.3
2023-04-07T23:35:00.163Z,93.8
2023-04-07T23:40:00.215Z,94.2
2023-04-07T23:45:00.156Z,94.4
2023-04-07T23:50:00.298Z,94.9
2023-04-07T23:55:00.197Z,95.6
